createdAt,value
2019-05-13T00:02:25.747Z,6.10
2019-05-13T00:04:53.453Z,15.63
2019-05-13T00:07:21.150Z,5.27
2019-05-13T00:09:48.867Z,8.10
2019-05-13T00:12:16.655Z,9.20
2019-05-13T00:14:44.308Z,7.97
2019-05-13T00:17:14.388Z,7.93
2019-05-13T00:19:41.463Z,9.93
2019-05-13T00:22:09.189Z,5.37
2019-05-13T00:24:36.875Z,6.73
2019-05-13T00:27:04.643Z,6.08
2019-05-13T00:29:34.065Z,6.65
2019-05-13T00:32:04.453Z,6.75
2019-05-13T00:34:33.756Z,8.80
2019-05-13T00:37:08.986Z,9.63
2019-05-13T00:39:30.429Z,13.67
2019-05-13T00:41:58.127Z,5.28
2019-05-13T00:44:25.836Z,6.97
2019-05-13T00:46:53.834Z,9.63
2019-05-13T00:49:23.726Z,4.45
2019-05-13T00:51:53.338Z,6.85
2019-05-13T00:54:20.678Z,6.90
2019-05-13T00:56:48.351Z,7.87
2019-05-13T00:59:16.104Z,5.05
2019-05-13T01:01:44.189Z,8.33
2019-05-13T01:04:14.153Z,7.17
2019-05-13T01:06:43.516Z,6.10
2019-05-13T01:09:11.117Z,5.80
2019-05-13T01:11:38.829Z,6.53
2019-05-13T01:14:06.520Z,9.23
2019-05-13T01:16:34.226Z,3.33
2019-05-13T01:19:04.038Z,4.45
2019-05-13T01:21:31.305Z,9.23
2019-05-13T01:23:58.971Z,9.98
2019-05-13T01:26:26.639Z,8.25
2019-05-13T01:28:54.263Z,8.10
2019-05-13T01:31:23.800Z,7.03
2019-05-13T01:33:53.659Z,4.78
2019-05-13T01:36:20.874Z,3.77
2019-05-13T01:38:48.499Z,7.50
2019-05-13T01:41:16.216Z,6.80
2019-05-13T01:43:44.216Z,6.87
2019-05-13T01:46:13.444Z,5.85
2019-05-13T01:48:43.593Z,6.75
2019-05-13T01:51:10.768Z,6.90
2019-05-13T01:53:38.437Z,8.30
2019-05-13T01:56:06.223Z,9.65
2019-05-13T01:58:34.175Z,9.13
2019-05-13T02:01:04.771Z,7.05
2019-05-13T02:03:33.659Z,8.08
2019-05-13T02:06:00.853Z,10.58
2019-05-13T02:08:28.513Z,9.13
2019-05-13T02:10:56.777Z,8.78
2019-05-13T02:13:25.046Z,9.35
2019-05-13T02:15:54.838Z,8.10
2019-05-13T02:18:24.411Z,11.55
2019-05-13T02:20:55.405Z,12.18
2019-05-13T02:23:23.907Z,10.05
2019-05-13T02:25:53.816Z,6.05
2019-05-13T02:28:21.202Z,6.60
2019-05-13T02:30:48.858Z,7.58
2019-05-13T02:33:16.545Z,8.50
2019-05-13T02:35:44.205Z,7.33
2019-05-13T02:38:22.605Z,9.35
2019-05-13T02:40:43.216Z,8.85
2019-05-13T02:43:13.594Z,9.03
2019-05-13T02:45:42.847Z,9.10
2019-05-13T02:48:12.638Z,12.13
2019-05-13T02:50:39.906Z,6.67
2019-05-13T02:53:07.550Z,9.23
2019-05-13T02:55:35.274Z,8.25
2019-05-13T02:58:03.471Z,9.63
2019-05-13T03:00:32.917Z,9.03
2019-05-13T03:03:03.234Z,8.63
2019-05-13T03:05:32.089Z,9.15
2019-05-13T03:08:03.023Z,4.92
2019-05-13T03:10:29.213Z,6.80
2019-05-13T03:12:56.882Z,7.85
2019-05-13T03:15:26.954Z,6.45
2019-05-13T03:18:04.839Z,7.65
2019-05-13T03:20:33.507Z,7.97
2019-05-13T03:23:03.065Z,9.03
2019-05-13T03:25:33.091Z,11.15
2019-05-13T03:28:03.287Z,9.13
2019-05-13T03:30:34.571Z,8.35
2019-05-13T03:33:04.102Z,8.15
2019-05-13T03:35:29.328Z,10.53
2019-05-13T03:37:57.341Z,10.15
2019-05-13T03:40:27.339Z,7.40
2019-05-13T03:42:58.461Z,9.53
2019-05-13T03:45:28.013Z,11.48
2019-05-13T03:47:58.056Z,10.98
2019-05-13T03:50:29.974Z,6.97
2019-05-13T03:52:55.269Z,10.18
2019-05-13T03:55:23.631Z,7.53
2019-05-13T03:57:53.181Z,7.33
2019-05-13T04:00:23.569Z,6.12
2019-05-13T04:02:52.129Z,11.10
2019-05-13T04:05:23.077Z,11.25
2019-05-13T04:07:52.044Z,9.63
2019-05-13T04:10:22.448Z,12.43
2019-05-13T04:12:52.414Z,13.50
2019-05-13T04:15:18.802Z,17.62
2019-05-13T04:17:46.598Z,16.50
2019-05-13T04:20:14.645Z,14.03
2019-05-13T04:22:42.589Z,17.32
2019-05-13T04:25:12.688Z,15.05
2019-05-13T04:27:42.911Z,14.43
2019-05-13T04:30:13.339Z,19.37
2019-05-13T04:32:39.847Z,16.82
2019-05-13T04:35:07.590Z,13.83
2019-05-13T04:37:35.367Z,12.98
2019-05-13T04:40:04.433Z,8.25
2019-05-13T04:42:33.329Z,10.93
2019-05-13T04:45:02.968Z,11.68
2019-05-13T04:47:33.910Z,12.00
2019-05-13T04:50:02.901Z,13.30
2019-05-13T04:52:33.012Z,10.68
2019-05-13T04:55:03.313Z,10.18
2019-05-13T04:57:32.969Z,10.23
2019-05-13T04:59:59.489Z,12.63
2019-05-13T05:02:58.188Z,9.95
2019-05-13T05:06:03.211Z,10.85
2019-05-13T05:09:08.492Z,11.65
2019-05-13T05:12:13.720Z,15.17
2019-05-13T05:15:53.513Z,11.03
2019-05-13T05:18:54.692Z,10.00
2019-05-13T05:21:27.549Z,9.80
2019-05-13T05:24:23.616Z,6.80
2019-05-13T05:27:44.062Z,9.20
2019-05-13T05:30:46.028Z,12.23
2019-05-13T05:33:57.091Z,9.57
2019-05-13T05:37:13.950Z,8.83
2019-05-13T05:39:42.543Z,10.30
2019-05-13T05:42:13.928Z,10.27
2019-05-13T05:44:43.358Z,8.63
2019-05-13T05:47:13.123Z,7.13
2019-05-13T05:49:42.340Z,8.63
2019-05-13T05:52:12.259Z,8.10
2019-05-13T05:54:42.046Z,8.80
2019-05-13T05:57:11.880Z,8.00
2019-05-13T05:59:39.075Z,7.80
2019-05-13T06:02:08.068Z,8.07
2019-05-13T06:04:35.949Z,8.23
2019-05-13T06:07:04.490Z,14.70
2019-05-13T06:09:32.404Z,7.67
2019-05-13T06:12:01.682Z,8.83
2019-05-13T06:14:32.389Z,9.60
2019-05-13T06:16:59.410Z,8.30
2019-05-13T06:19:27.051Z,8.20
2019-05-13T06:21:54.796Z,7.00
2019-05-13T06:24:26.466Z,6.93
2019-05-13T06:26:52.172Z,14.23
2019-05-13T06:29:22.088Z,7.60
2019-05-13T06:31:51.829Z,5.27
2019-05-13T06:34:21.405Z,7.63
2019-05-13T06:36:52.134Z,9.60
2019-05-13T06:39:19.329Z,5.20
2019-05-13T06:41:47.011Z,11.10
2019-05-13T06:44:14.680Z,9.47
2019-05-13T06:46:42.521Z,10.40
2019-05-13T06:49:12.223Z,10.40
2019-05-13T06:51:41.794Z,5.53
2019-05-13T06:54:11.199Z,7.67
2019-05-13T06:56:38.614Z,7.23
2019-05-13T06:59:06.263Z,5.17
2019-05-13T07:01:33.902Z,7.17
2019-05-13T07:04:02.427Z,6.37
2019-05-13T07:06:32.287Z,6.97
2019-05-13T07:09:01.445Z,8.37
2019-05-13T07:11:31.232Z,7.47
2019-05-13T07:13:58.670Z,7.00
2019-05-13T07:16:26.439Z,6.53
2019-05-13T07:18:54.094Z,6.30
2019-05-13T07:21:21.886Z,6.93
2019-05-13T07:23:54.476Z,11.53
2019-05-13T07:26:19.174Z,9.43
2019-05-13T07:28:46.882Z,10.77
2019-05-13T07:31:15.109Z,6.23
2019-05-13T07:33:42.810Z,6.60
2019-05-13T07:36:12.705Z,11.53
2019-05-13T07:38:41.608Z,4.50
2019-05-13T07:41:11.853Z,10.60
2019-05-13T07:43:38.934Z,6.30
2019-05-13T07:46:06.576Z,7.30
2019-05-13T07:48:34.233Z,5.77
2019-05-13T07:51:04.620Z,8.77
2019-05-13T07:53:32.242Z,7.73
2019-05-13T07:56:01.942Z,9.23
2019-05-13T07:58:34.256Z,9.70
2019-05-13T08:00:59.056Z,7.90
2019-05-13T08:03:26.736Z,9.37
2019-05-13T08:05:54.402Z,4.67
2019-05-13T08:08:22.141Z,5.23
2019-05-13T08:10:51.802Z,6.37
2019-05-13T08:13:19.272Z,5.37
2019-05-13T08:15:46.896Z,7.57
2019-05-13T08:18:14.574Z,7.60
2019-05-13T08:20:42.401Z,5.73
2019-05-13T08:23:11.764Z,4.83
2019-05-13T08:25:42.113Z,7.30
2019-05-13T08:28:09.213Z,6.87
2019-05-13T08:30:36.950Z,9.87
2019-05-13T08:33:04.599Z,5.83
2019-05-13T08:35:32.293Z,5.67
2019-05-13T08:38:01.396Z,4.43
2019-05-13T08:40:31.533Z,4.57
2019-05-13T08:43:01.260Z,6.13
2019-05-13T08:45:28.260Z,6.87
2019-05-13T08:47:55.916Z,6.77
2019-05-13T08:50:23.537Z,3.87
2019-05-13T08:52:51.338Z,10.83
2019-05-13T08:55:21.273Z,4.70
2019-05-13T08:57:48.584Z,4.00
2019-05-13T09:00:35.879Z,7.30
2019-05-13T09:03:06.173Z,6.93
2019-05-13T09:05:33.090Z,4.03
2019-05-13T09:08:01.379Z,4.77
2019-05-13T09:10:29.179Z,7.17
2019-05-13T09:12:56.840Z,4.60
2019-05-13T09:15:24.514Z,4.60
2019-05-13T09:17:52.141Z,4.90
2019-05-13T09:20:21.904Z,6.07
2019-05-13T09:22:51.371Z,2.47
2019-05-13T09:25:18.796Z,4.67
2019-05-13T09:27:46.453Z,6.43
2019-05-13T09:30:14.101Z,3.67
2019-05-13T09:32:42.514Z,4.80
2019-05-13T09:35:11.988Z,5.77
2019-05-13T09:37:42.164Z,3.73
2019-05-13T09:40:11.473Z,5.67
2019-05-13T09:42:49.062Z,2.17
2019-05-13T09:45:08.623Z,4.23
2019-05-13T09:47:36.271Z,1.97
2019-05-13T09:50:04.720Z,4.27
2019-05-13T09:52:32.467Z,4.10
2019-05-13T09:55:02.871Z,4.30
2019-05-13T09:57:31.996Z,5.70
2019-05-13T10:00:01.421Z,3.87
2019-05-13T10:02:28.600Z,5.60
2019-05-13T10:04:56.279Z,2.00
2019-05-13T10:07:23.918Z,4.13
2019-05-13T10:09:52.194Z,3.90
2019-05-13T10:12:23.748Z,3.07
2019-05-13T10:14:49.591Z,3.93
2019-05-13T10:17:17.258Z,2.00
2019-05-13T10:19:44.869Z,4.50
2019-05-13T10:22:12.939Z,4.33
2019-05-13T10:24:42.235Z,3.13
2019-05-13T10:27:12.241Z,2.47
2019-05-13T10:29:42.420Z,2.67
2019-05-13T10:32:10.019Z,4.17
2019-05-13T10:34:38.365Z,1.70
2019-05-13T10:37:06.490Z,2.80
2019-05-13T10:39:34.109Z,3.03
2019-05-13T10:42:03.577Z,4.30
2019-05-13T10:44:31.339Z,3.00
2019-05-13T10:46:59.011Z,1.43
2019-05-13T10:49:26.666Z,2.60
2019-05-13T10:51:54.336Z,2.30
2019-05-13T10:54:22.013Z,3.07
2019-05-13T10:56:52.205Z,5.23
2019-05-13T10:59:19.153Z,2.87
2019-05-13T11:01:46.802Z,3.47
2019-05-13T11:04:14.587Z,3.50
2019-05-13T11:06:42.208Z,4.50
2019-05-13T11:09:12.938Z,6.53
2019-05-13T11:11:41.378Z,2.23
2019-05-13T11:14:12.879Z,2.83
2019-05-13T11:16:42.767Z,3.23
2019-05-13T11:19:11.989Z,4.47
2019-05-13T11:21:43.107Z,2.10
2019-05-13T11:24:12.449Z,3.90
2019-05-13T11:26:38.914Z,3.73
2019-05-13T11:29:16.761Z,4.43
2019-05-13T11:31:44.399Z,2.57
2019-05-13T11:34:12.102Z,5.60
2019-05-13T11:36:43.108Z,3.90
2019-05-13T11:39:12.707Z,1.33
2019-05-13T11:41:39.004Z,2.50
2019-05-13T11:44:14.132Z,3.40
2019-05-13T11:46:36.203Z,3.33
2019-05-13T11:49:03.889Z,2.37
2019-05-13T11:51:32.338Z,1.40
2019-05-13T11:54:02.516Z,2.07
2019-05-13T11:56:33.434Z,3.90
2019-05-13T11:58:59.178Z,1.17
2019-05-13T12:01:26.789Z,1.20
2019-05-13T12:03:54.455Z,1.40
2019-05-13T12:06:23.285Z,4.43
2019-05-13T12:08:55.012Z,1.87
2019-05-13T12:11:22.434Z,6.60
2019-05-13T12:13:52.922Z,2.20
2019-05-13T12:16:22.507Z,1.23
2019-05-13T12:18:51.212Z,2.33
2019-05-13T12:21:18.745Z,1.80
2019-05-13T12:23:46.436Z,4.73
2019-05-13T12:26:14.412Z,2.87
2019-05-13T12:28:42.246Z,2.83
2019-05-13T12:31:12.143Z,2.03
2019-05-13T12:33:39.405Z,2.83
2019-05-13T12:36:07.114Z,1.77
2019-05-13T12:38:34.787Z,3.17
2019-05-13T12:41:05.017Z,1.53
2019-05-13T12:43:32.046Z,4.87
2019-05-13T12:46:02.273Z,1.83
2019-05-13T12:48:29.575Z,1.47
2019-05-13T12:50:57.237Z,2.57
2019-05-13T12:53:24.901Z,1.53
2019-05-13T12:55:56.906Z,1.10
2019-05-13T12:58:23.795Z,3.27
2019-05-13T13:00:53.269Z,2.33
2019-05-13T13:03:23.127Z,2.10
2019-05-13T13:05:50.589Z,1.73
2019-05-13T13:08:34.747Z,2.33
2019-05-13T13:10:47.840Z,4.27
2019-05-13T13:13:15.877Z,1.53
2019-05-13T13:15:48.597Z,2.30
2019-05-13T13:18:14.493Z,0.77
2019-05-13T13:20:42.556Z,3.03
2019-05-13T13:23:12.602Z,1.93
2019-05-13T13:25:42.472Z,1.20
2019-05-13T13:28:14.308Z,1.13
2019-05-13T13:30:38.632Z,1.93
2019-05-13T13:33:06.247Z,1.87
2019-05-13T13:35:34.144Z,1.67
2019-05-13T13:38:04.265Z,2.10
2019-05-13T13:40:35.180Z,1.40
2019-05-13T13:43:05.312Z,3.63
2019-05-13T13:45:36.742Z,2.87
2019-05-13T13:48:03.977Z,2.93
2019-05-13T13:50:33.277Z,2.60
2019-05-13T13:52:58.808Z,1.90
2019-05-13T13:55:26.451Z,2.03
2019-05-13T13:57:56.730Z,1.87
2019-05-13T14:00:39.307Z,3.97
2019-05-13T14:02:54.534Z,6.13
2019-05-13T14:05:24.690Z,3.43
2019-05-13T14:07:52.202Z,2.67
2019-05-13T14:10:22.020Z,6.10
2019-05-13T14:12:52.283Z,4.97
2019-05-13T14:15:21.381Z,3.77
2019-05-13T14:17:48.644Z,3.33
2019-05-13T14:20:17.235Z,2.30
2019-05-13T14:22:44.852Z,6.27
2019-05-13T14:25:12.863Z,1.70
2019-05-13T14:27:41.988Z,3.27
2019-05-13T14:30:11.741Z,4.27
2019-05-13T14:32:39.429Z,1.53
2019-05-13T14:35:11.633Z,2.80
2019-05-13T14:37:38.457Z,3.23
2019-05-13T14:40:07.662Z,2.33
2019-05-13T14:42:35.313Z,2.00
2019-05-13T14:45:03.719Z,2.90
2019-05-13T14:47:32.112Z,2.97
2019-05-13T14:50:01.910Z,2.70
2019-05-13T14:52:32.164Z,5.53
2019-05-13T14:54:59.091Z,1.87
2019-05-13T14:57:26.732Z,2.57
2019-05-13T14:59:54.414Z,3.73
2019-05-13T15:02:22.060Z,3.87
2019-05-13T15:04:52.179Z,2.27
2019-05-13T15:07:21.370Z,3.13
2019-05-13T15:09:48.635Z,2.67
2019-05-13T15:12:16.285Z,2.20
2019-05-13T15:14:43.926Z,1.40
2019-05-13T15:17:12.731Z,3.13
2019-05-13T15:19:41.931Z,3.60
2019-05-13T15:22:11.430Z,1.90
2019-05-13T15:24:41.241Z,1.50
2019-05-13T15:27:08.766Z,4.23
2019-05-13T15:29:36.416Z,2.60
2019-05-13T15:32:04.104Z,2.23
2019-05-13T15:34:31.924Z,2.10
2019-05-13T15:37:01.964Z,5.80
2019-05-13T15:39:31.392Z,2.33
2019-05-13T15:42:01.701Z,1.27
2019-05-13T15:44:28.343Z,0.97
2019-05-13T15:46:58.892Z,2.23
2019-05-13T15:49:25.701Z,1.93
2019-05-13T15:51:53.651Z,1.63
2019-05-13T15:54:22.130Z,2.67
2019-05-13T15:56:49.931Z,2.87
2019-05-13T15:59:17.546Z,1.60
2019-05-13T16:01:45.220Z,2.07
2019-05-13T16:04:13.633Z,1.30
2019-05-13T16:06:41.933Z,1.03
2019-05-13T16:09:11.671Z,1.20
2019-05-13T16:11:41.420Z,1.40
2019-05-13T16:14:11.422Z,4.00
2019-05-13T16:16:38.274Z,2.50
2019-05-13T16:19:05.955Z,2.43
2019-05-13T16:21:33.776Z,1.57
2019-05-13T16:24:02.625Z,4.77
2019-05-13T16:26:31.901Z,0.80
2019-05-13T16:29:02.111Z,2.03
2019-05-13T16:31:29.211Z,1.10
2019-05-13T16:33:56.893Z,1.00
2019-05-13T16:36:27.558Z,1.47
2019-05-13T16:38:55.423Z,1.73
2019-05-13T16:41:23.052Z,2.40
2019-05-13T16:43:50.708Z,3.20
2019-05-13T16:46:18.430Z,1.60
2019-05-13T16:48:46.122Z,1.03
2019-05-13T16:51:13.762Z,3.20
2019-05-13T16:53:42.261Z,2.23
2019-05-13T16:56:25.317Z,3.53
2019-05-13T16:58:41.755Z,2.43
2019-05-13T17:01:11.794Z,1.43
2019-05-13T17:03:41.469Z,1.37
2019-05-13T17:06:08.833Z,2.73
2019-05-13T17:08:36.476Z,2.43
2019-05-13T17:11:04.243Z,1.77
2019-05-13T17:13:31.908Z,1.97
2019-05-13T17:16:01.405Z,1.70
2019-05-13T17:18:28.999Z,1.63
2019-05-13T17:20:56.649Z,1.73
2019-05-13T17:23:24.411Z,1.50
2019-05-13T17:25:52.214Z,2.33
2019-05-13T17:28:21.854Z,1.50
2019-05-13T17:30:51.767Z,1.07
2019-05-13T17:33:18.781Z,5.03
2019-05-13T17:35:46.382Z,1.97
2019-05-13T17:38:14.082Z,2.30
2019-05-13T17:40:42.089Z,2.13
2019-05-13T17:43:11.791Z,1.20
2019-05-13T17:45:41.537Z,1.70
2019-05-13T17:48:24.801Z,3.07
2019-05-13T17:50:38.393Z,2.77
2019-05-13T17:53:06.203Z,1.50
2019-05-13T17:55:33.833Z,1.47
2019-05-13T17:58:01.544Z,2.63
2019-05-13T18:00:29.209Z,1.50
2019-05-13T18:02:56.837Z,2.43
2019-05-13T18:05:24.517Z,1.23
2019-05-13T18:07:52.164Z,2.30
2019-05-13T18:10:22.388Z,3.17
2019-05-13T18:12:51.103Z,2.10
2019-05-13T18:15:18.838Z,1.27
2019-05-13T18:17:46.483Z,1.37
2019-05-13T18:20:14.641Z,2.00
2019-05-13T18:22:42.265Z,0.87
2019-05-13T18:25:11.992Z,2.10
2019-05-13T18:27:41.565Z,1.17
2019-05-13T18:30:11.429Z,1.33
2019-05-13T18:32:39.010Z,1.87
2019-05-13T18:35:06.842Z,3.07
2019-05-13T18:37:34.578Z,2.73
2019-05-13T18:40:02.653Z,1.30
2019-05-13T18:42:31.727Z,3.20
2019-05-13T18:44:59.430Z,1.80
2019-05-13T18:47:27.138Z,3.30
2019-05-13T18:49:54.838Z,4.70
2019-05-13T18:52:22.495Z,2.60
2019-05-13T18:54:51.421Z,1.40
2019-05-13T18:57:21.200Z,1.83
2019-05-13T18:59:48.849Z,2.43
2019-05-13T19:02:16.498Z,3.30
2019-05-13T19:04:44.169Z,1.57
2019-05-13T19:07:11.974Z,2.67
2019-05-13T19:09:41.574Z,1.83
2019-05-13T19:12:11.451Z,1.63
2019-05-13T19:14:38.526Z,1.63
2019-05-13T19:17:06.233Z,1.37
2019-05-13T19:19:33.924Z,2.70
2019-05-13T19:22:02.274Z,1.80
2019-05-13T19:24:31.210Z,1.30
2019-05-13T19:27:01.478Z,1.67
2019-05-13T19:29:28.565Z,4.17
2019-05-13T19:31:56.211Z,3.17
2019-05-13T19:34:23.875Z,0.90
2019-05-13T19:36:51.719Z,1.10
2019-05-13T19:39:21.573Z,3.37
2019-05-13T19:41:48.841Z,0.97
2019-05-13T19:44:16.491Z,2.17
2019-05-13T19:46:44.186Z,1.40
2019-05-13T19:49:12.344Z,1.67
2019-05-13T19:51:41.652Z,2.27
2019-05-13T19:54:11.567Z,2.37
2019-05-13T19:56:38.914Z,1.60
2019-05-13T19:59:06.821Z,1.07
2019-05-13T20:01:34.473Z,1.20
2019-05-13T20:04:02.585Z,4.03
2019-05-13T20:06:31.986Z,2.60
2019-05-13T20:09:01.470Z,1.43
2019-05-13T20:11:29.125Z,3.93
2019-05-13T20:13:56.789Z,2.43
2019-05-13T20:16:24.440Z,1.23
2019-05-13T20:18:52.143Z,1.57
2019-05-13T20:21:19.766Z,1.47
2019-05-13T20:23:47.377Z,2.43
2019-05-13T20:26:15.048Z,2.33
2019-05-13T20:28:42.703Z,1.23
2019-05-13T20:31:11.125Z,1.60
2019-05-13T20:33:40.038Z,1.00
2019-05-13T20:36:09.182Z,2.67
2019-05-13T20:38:36.803Z,6.23
2019-05-13T20:41:04.418Z,2.57
2019-05-13T20:43:32.739Z,2.83
2019-05-13T20:46:02.037Z,6.20
2019-05-13T20:48:32.064Z,3.20
2019-05-13T20:50:59.487Z,3.70
2019-05-13T20:53:27.123Z,2.73
2019-05-13T20:55:54.769Z,2.00
2019-05-13T20:58:22.429Z,2.87
2019-05-13T21:00:51.510Z,2.20
2019-05-13T21:03:22.100Z,2.67
2019-05-13T21:05:52.072Z,4.90
2019-05-13T21:08:22.021Z,3.77
2019-05-13T21:10:51.753Z,6.13
2019-05-13T21:13:21.304Z,1.90
2019-05-13T21:15:51.918Z,4.90
2019-05-13T21:18:22.140Z,2.80
2019-05-13T21:20:51.454Z,3.90
2019-05-13T21:23:21.776Z,4.27
2019-05-13T21:25:51.031Z,2.07
2019-05-13T21:28:18.977Z,3.03
2019-05-13T21:30:46.676Z,2.77
2019-05-13T21:33:14.315Z,1.70
2019-05-13T21:35:42.089Z,2.50
2019-05-13T21:38:11.263Z,2.37
2019-05-13T21:40:41.341Z,3.57
2019-05-13T21:43:08.683Z,4.57
2019-05-13T21:45:36.363Z,4.97
2019-05-13T21:48:04.035Z,3.93
2019-05-13T21:50:36.984Z,3.57
2019-05-13T21:53:02.000Z,3.03
2019-05-13T21:55:29.832Z,5.43
2019-05-13T21:57:57.471Z,3.93
2019-05-13T22:00:32.212Z,2.97
2019-05-13T22:03:02.010Z,4.03
2019-05-13T22:05:31.310Z,7.00
2019-05-13T22:07:58.806Z,4.20
2019-05-13T22:10:26.422Z,5.60
2019-05-13T22:12:54.107Z,4.87
2019-05-13T22:15:21.892Z,7.00
2019-05-13T22:17:51.295Z,5.37
2019-05-13T22:20:21.155Z,6.33
2019-05-13T22:22:48.509Z,2.53
2019-05-13T22:25:16.170Z,5.70
2019-05-13T22:27:43.882Z,3.73
2019-05-13T22:30:12.006Z,6.30
2019-05-13T22:32:41.544Z,8.73
2019-05-13T22:35:11.199Z,5.70
2019-05-13T22:37:38.983Z,3.13
2019-05-13T22:40:07.222Z,4.90
2019-05-13T22:42:34.875Z,3.60
2019-05-13T22:45:03.019Z,7.40
2019-05-13T22:47:31.497Z,4.13
2019-05-13T22:50:01.736Z,3.93
2019-05-13T22:52:31.114Z,3.30
2019-05-13T22:54:58.368Z,3.30
2019-05-13T22:57:26.027Z,4.53
2019-05-13T22:59:53.850Z,3.13
2019-05-13T23:02:21.934Z,3.37
2019-05-13T23:04:51.156Z,3.67
2019-05-13T23:07:18.910Z,3.37
2019-05-13T23:09:46.545Z,6.53
2019-05-13T23:12:14.198Z,4.23
2019-05-13T23:14:42.523Z,2.00
2019-05-13T23:17:12.297Z,2.03
2019-05-13T23:19:41.470Z,4.30
2019-05-13T23:22:09.116Z,3.47
2019-05-13T23:24:36.759Z,3.20
2019-05-13T23:27:04.439Z,2.97
2019-05-13T23:29:32.139Z,3.97
2019-05-13T23:32:01.415Z,4.50
2019-05-13T23:34:31.587Z,2.60
2019-05-13T23:36:58.698Z,2.40
2019-05-13T23:39:26.348Z,3.17
2019-05-13T23:41:54.134Z,7.27
2019-05-13T23:44:27.703Z,4.50
2019-05-13T23:46:51.450Z,4.83
2019-05-13T23:49:21.069Z,4.03
2019-05-13T23:51:48.682Z,3.70
2019-05-13T23:54:16.357Z,3.63
2019-05-13T23:56:49.924Z,4.33
2019-05-13T23:59:17.560Z,4.07
